Time;durP1;ratioP1;P1;durP2;ratioP2;P2;SDS_P1;SDS_P2;PMS_P1;PMS_P2;Temp;Humidity;BMP_temperature;BMP_pressure;BME280_temperature;BME280_humidity;BME280_pressure;Samples;Min_cycle;Max_cycle;Signal;HPM_P1;HPM_P2
2022/06/01 00:01:34;;;;;;;11.67;10.77;;;;;;;10.74;95.33;101374.53;5093467;28;20056;-36
2022/06/01 00:03:59;;;;;;;12.77;11.60;;;;;;;10.69;95.23;101381.66;5092940;28;20051;-36
2022/06/01 00:06:26;;;;;;;12.17;11.10;;;;;;;10.70;95.39;101373.31;5092906;28;20032;-35
2022/06/01 00:08:52;;;;;;;12.60;11.48;;;;;;;10.71;95.44;101374.13;5092742;28;20103;-36
2022/06/01 00:11:17;;;;;;;13.13;12.13;;;;;;;10.70;96.06;101370.59;5093109;28;20067;-35
2022/06/01 00:13:43;;;;;;;13.07;12.07;;;;;;;10.68;96.42;101375.38;5092939;28;20032;-35
2022/06/01 00:16:08;;;;;;;13.37;12.27;;;;;;;10.70;95.59;101381.41;5093315;28;20464;-35
2022/06/01 00:18:35;;;;;;;12.98;11.98;;;;;;;10.70;95.89;101378.72;5092701;28;20274;-35
2022/06/01 00:21:01;;;;;;;13.20;12.02;;;;;;;10.60;95.93;101372.13;5093184;28;20024;-35
2022/06/01 00:23:26;;;;;;;14.37;12.97;;;;;;;10.62;96.39;101370.03;5092808;28;20040;-35
2022/06/01 00:25:52;;;;;;;13.80;12.57;;;;;;;10.70;96.73;101380.59;5092906;28;20039;-35
2022/06/01 00:28:17;;;;;;;12.98;11.98;;;;;;;10.58;96.35;101364.22;5092649;28;20028;-35
2022/06/01 00:30:43;;;;;;;13.70;12.60;;;;;;;10.72;96.45;101376.59;5093447;28;20108;-35
2022/06/01 00:33:09;;;;;;;13.73;12.52;;;;;;;10.70;96.19;101378.72;5092840;28;20034;-35
2022/06/01 00:35:34;;;;;;;13.48;12.35;;;;;;;10.64;96.33;101376.91;5092869;28;20024;-35
2022/06/01 00:38:00;;;;;;;14.23;13.03;;;;;;;10.59;96.74;101371.31;5093783;28;20035;-35
2022/06/01 00:40:27;;;;;;;14.00;12.68;;;;;;;10.67;96.70;101387.25;5097479;28;20024;-35
2022/06/01 00:42:59;;;;;;;14.18;13.07;;;;;;;10.66;96.69;101382.06;5097547;28;20391;-35
2022/06/01 00:45:28;;;;;;;14.82;13.63;;;;;;;10.63;96.68;101379.78;5097240;28;20063;-35
2022/06/01 00:47:53;;;;;;;13.25;12.07;;;;;;;10.55;95.89;101365.50;5097246;28;20027;-35
2022/06/01 00:50:36;;;;;;;13.82;12.73;;;;;;;10.65;96.45;101378.53;5097108;28;20089;-35
2022/06/01 00:53:23;;;;;;;13.60;12.48;;;;;;;10.57;96.23;101376.91;5096601;28;20039;-35
2022/06/01 00:55:54;;;;;;;12.68;11.68;;;;;;;10.57;95.95;101384.22;5096332;28;20072;-35
2022/06/01 00:58:28;;;;;;;13.68;12.57;;;;;;;10.54;96.33;101382.78;5097256;28;20031;-35
2022/06/01 01:00:57;;;;;;;14.02;12.88;;;;;;;10.46;96.34;101377.63;5096714;28;20093;-35
2022/06/01 01:03:26;;;;;;;14.23;12.98;;;;;;;10.50;96.59;101372.63;5097143;28;20020;-35
2022/06/01 01:06:05;;;;;;;13.85;12.75;;;;;;;10.48;96.18;101375.50;5096691;28;20032;-35
2022/06/01 01:08:31;;;;;;;13.68;12.57;;;;;;;10.42;96.81;101370.97;5096381;28;20030;-35
2022/06/01 01:10:56;;;;;;;15.23;13.88;;;;;;;10.38;96.88;101361.66;5096591;28;20032;-36
2022/06/01 01:13:23;;;;;;;13.70;12.60;;;;;;;10.45;97.06;101373.25;5096275;28;20035;-35
2022/06/01 01:15:58;;;;;;;14.38;13.07;;;;;;;10.41;96.27;101369.34;5096272;28;20035;-35
2022/06/01 01:18:30;;;;;;;14.35;13.15;;;;;;;10.38;96.73;101367.06;5096154;28;20084;-35
2022/06/01 01:21:05;;;;;;;13.85;12.75;;;;;;;10.35;97.22;101364.81;5096400;28;20110;-35
2022/06/01 01:23:49;;;;;;;13.18;12.07;;;;;;;10.27;97.44;101363.16;5095962;28;20046;-35
2022/06/01 01:26:15;;;;;;;14.73;13.55;;;;;;;10.24;96.95;101349.25;5095738;28;20035;-35
2022/06/01 01:28:41;;;;;;;13.98;12.88;;;;;;;10.33;96.75;101369.56;5095703;28;20114;-35
2022/06/01 01:31:16;;;;;;;14.73;13.27;;;;;;;10.31;97.48;101369.81;5095952;28;20028;-35
2022/06/01 01:33:42;;;;;;;13.98;12.80;;;;;;;10.23;97.42;101361.06;5096621;28;20073;-35
2022/06/01 01:36:11;;;;;;;14.43;13.13;;;;;;;10.30;97.71;101372.72;5095800;28;20423;-35
2022/06/01 01:38:59;;;;;;;14.27;13.07;;;;;;;10.36;98.35;101366.44;5095739;28;20043;-35
2022/06/01 01:41:24;;;;;;;14.32;13.02;;;;;;;10.40;97.96;101361.44;5096380;28;20039;-35
2022/06/01 01:44:07;;;;;;;13.95;12.85;;;;;;;10.38;97.35;101358.13;5095528;28;20399;-35
2022/06/01 01:46:32;;;;;;;14.30;13.07;;;;;;;10.43;98.02;101367.22;5095638;28;20111;-35
2022/06/01 01:48:58;;;;;;;13.65;12.60;;;;;;;10.42;97.38;101364.75;5095541;28;20524;-35
2022/06/01 01:51:25;;;;;;;;;;;;;;;10.59;96.25;101368.59;5096729;28;20387;-35
2022/06/01 01:53:51;;;;;;;14.20;13.00;;;;;;;10.40;97.04;101351.47;5095576;28;19951;-35
2022/06/01 01:56:17;;;;;;;;;;;;;;;10.62;95.86;101361.91;5095812;28;20074;-35
2022/06/01 01:59:01;;;;;;;13.43;12.27;;;;;;;10.52;96.70;101367.81;5096200;28;19961;-35
2022/06/01 02:02:01;;;;;;;15.73;14.30;;;;;;;10.55;97.28;101375.50;5095313;28;20062;-35
2022/06/01 02:07:29;;;;;;;14.55;13.25;;;;;;;10.49;96.76;101371.78;5032986;28;20043;-35
2022/06/01 02:12:42;;;;;;;15.98;14.55;;;;;;;10.44;97.62;101368.91;5033105;28;20156;-35
2022/06/01 02:15:12;;;;;;;14.13;12.93;;;;;;;10.48;97.19;101363.88;5032489;28;20037;-35
2022/06/01 02:17:51;;;;;;;15.23;13.88;;;;;;;10.42;96.94;101373.69;5032370;28;20081;-35
2022/06/01 02:20:40;;;;;;;15.55;14.18;;;;;;;10.44;97.19;101368.91;5032403;28;20041;-35
2022/06/01 02:23:11;;;;;;;15.57;14.27;;;;;;;10.32;97.21;101349.81;5032722;28;20581;-35
2022/06/01 02:25:38;;;;;;;15.43;14.13;;;;;;;10.42;96.97;101356.63;5032508;28;20053;-35
2022/06/01 02:28:03;;;;;;;16.02;14.63;;;;;;;10.53;96.09;101372.16;5032153;28;20045;-35
2022/06/01 02:30:36;;;;;;;15.77;14.40;;;;;;;10.55;96.01;101367.38;5032518;28;20044;-35
2022/06/01 02:33:04;;;;;;;14.73;13.48;;;;;;;10.39;96.08;101352.47;5032339;28;20040;-35
2022/06/01 02:35:36;;;;;;;16.25;14.82;;;;;;;10.48;96.75;101367.41;5032086;28;20081;-35
2022/06/01 02:38:04;;;;;;;15.80;14.48;;;;;;;10.50;96.65;101376.16;5031873;28;20033;-35
2022/06/01 02:40:30;;;;;;;14.98;13.75;;;;;;;10.55;96.42;101360.09;5043834;28;20093;-35
2022/06/01 02:42:56;;;;;;;15.98;14.68;;;;;;;10.54;96.22;101374.66;5094983;28;20380;-35
2022/06/01 02:45:25;;;;;;;16.33;14.80;;;;;;;10.54;95.40;101371.09;5094443;28;20024;-35
2022/06/01 02:47:53;;;;;;;17.08;15.55;;;;;;;10.44;95.76;101358.09;5094235;28;20465;-35
2022/06/01 02:50:21;;;;;;;15.35;14.05;;;;;;;10.51;95.73;101363.44;5094441;28;20453;-35
2022/06/01 02:52:47;;;;;;;15.65;14.35;;;;;;;10.47;95.76;101363.03;5094516;28;20174;-35
2022/06/01 02:55:14;;;;;;;15.63;14.23;;;;;;;10.35;95.06;101361.28;5094157;28;20491;-35
2022/06/01 02:57:41;;;;;;;14.70;13.43;;;;;;;10.21;94.76;101336.97;5094434;28;20027;-35
2022/06/01 03:00:10;;;;;;;14.45;13.18;;;;;;;10.31;95.57;101355.47;5093510;28;20028;-35
2022/06/01 03:02:39;;;;;;;14.50;13.20;;;;;;;10.31;95.07;101363.56;5093817;28;20081;-35
2022/06/01 03:05:05;;;;;;;15.30;13.95;;;;;;;10.19;94.89;101346.34;5093986;28;20023;-35
2022/06/01 03:07:32;;;;;;;14.20;12.75;;;;;;;10.30;94.51;101357.34;5094069;28;20062;-35
2022/06/01 03:09:57;;;;;;;14.52;13.27;;;;;;;10.12;94.53;101348.25;5093683;28;20468;-35
2022/06/01 03:12:22;;;;;;;14.68;13.38;;;;;;;10.18;95.00;101360.91;5094130;28;20024;-35
2022/06/01 03:14:48;;;;;;;15.80;14.33;;;;;;;10.16;94.96;101354.88;5093798;28;20028;-35
2022/06/01 03:17:13;;;;;;;15.13;13.63;;;;;;;10.15;94.95;101372.13;5094196;28;20456;-35
2022/06/01 03:19:38;;;;;;;16.07;14.70;;;;;;;10.06;94.86;101372.41;5094020;28;20020;-35
2022/06/01 03:22:04;;;;;;;16.20;14.70;;;;;;;10.01;94.84;101376.78;5094006;28;20046;-35
2022/06/01 03:24:30;;;;;;;15.23;13.93;;;;;;;9.89;94.86;101357.69;5093706;28;20513;-35
2022/06/01 03:26:56;;;;;;;16.75;15.18;;;;;;;9.97;95.09;101370.97;5094108;28;20066;-35
2022/06/01 03:29:24;;;;;;;15.57;14.07;;;;;;;9.95;95.37;101375.75;5094082;28;20347;-35
2022/06/01 03:31:50;;;;;;;15.32;14.02;;;;;;;9.97;95.93;101370.16;5094347;28;20031;-35
2022/06/01 03:34:16;;;;;;;15.25;14.00;;;;;;;9.89;95.96;101373.06;5093242;28;20024;-35
2022/06/01 03:36:41;;;;;;;15.63;14.20;;;;;;;9.91;95.26;101371.00;5094023;28;20330;-35
2022/06/01 03:39:06;;;;;;;16.43;14.90;;;;;;;9.79;95.13;101360.84;5093404;28;20099;-35
2022/06/01 03:41:32;;;;;;;14.77;13.47;;;;;;;9.90;95.23;101375.56;5094143;28;20020;-35
2022/06/01 03:46:41;;;;;;;16.20;14.70;;;;;;;9.83;95.45;101376.63;5093735;28;20051;-35
2022/06/01 03:49:07;;;;;;;16.53;14.87;;;;;;;9.75;95.76;101375.00;5093224;28;20104;-35
2022/06/01 03:51:32;;;;;;;15.57;14.18;;;;;;;9.78;95.62;101375.41;5093255;28;20592;-35
2022/06/01 03:53:57;;;;;;;15.40;14.00;;;;;;;9.62;94.92;101356.97;5093208;28;20471;-35
2022/06/01 03:56:23;;;;;;;17.10;15.50;;;;;;;9.79;94.74;101389.72;5093573;28;20401;-35
2022/06/01 03:58:50;;;;;;;16.73;14.90;;;;;;;9.82;96.05;101385.78;5093563;28;20471;-35
2022/06/01 04:01:16;;;;;;;16.50;14.52;;;;;;;9.72;95.41;101381.66;5093457;28;20487;-35
2022/06/01 04:03:41;;;;;;;15.30;13.85;;;;;;;9.77;95.66;101389.13;5093049;28;20107;-35
2022/06/01 04:06:06;;;;;;;14.63;13.23;;;;;;;9.68;95.32;101375.03;5093133;28;20038;-35
2022/06/01 04:08:32;;;;;;;15.50;14.07;;;;;;;9.74;95.03;101389.53;5093216;28;20046;-35
2022/06/01 04:10:57;;;;;;;14.33;13.03;;;;;;;9.69;95.04;101386.66;5093260;28;20020;-35
2022/06/01 04:13:25;;;;;;;14.30;12.90;;;;;;;9.76;96.31;101393.69;5092807;28;20046;-35
2022/06/01 04:15:50;;;;;;;14.48;13.07;;;;;;;9.79;95.97;101389.72;5092742;28;20040;-35
2022/06/01 04:18:16;;;;;;;14.38;12.88;;;;;;;9.72;95.16;101375.44;5092816;28;20028;-35
2022/06/01 04:20:42;;;;;;;14.13;12.68;;;;;;;9.76;95.61;101388.31;5092558;28;20028;-35
2022/06/01 04:23:07;;;;;;;13.48;12.27;;;;;;;9.78;94.79;101388.06;5092522;28;20055;-35
2022/06/01 04:25:33;;;;;;;14.37;13.00;;;;;;;9.84;95.04;101389.09;5093452;28;20037;-35
2022/06/01 04:27:58;;;;;;;13.03;11.93;;;;;;;9.82;94.96;101392.03;5092781;28;20060;-35
2022/06/01 04:30:23;;;;;;;14.47;11.63;;;;;;;9.87;95.00;101388.69;5093315;28;20464;-35
2022/06/01 04:32:51;;;;;;;13.40;12.10;;;;;;;9.90;94.88;101380.97;5091610;28;20028;-35
2022/06/01 04:35:19;;;;;;;13.52;12.23;;;;;;;9.84;94.57;101378.28;5092511;28;20115;-35
2022/06/01 04:37:44;;;;;;;12.40;11.20;;;;;;;9.97;94.76;101386.34;5093062;28;20031;-35
2022/06/01 04:40:12;;;;;;;13.57;11.82;;;;;;;9.96;94.78;101390.94;5092663;28;20527;-35
2022/06/01 04:42:39;;;;;;;12.40;11.07;;;;;;;10.03;94.37;101389.03;5093062;28;20024;-35
2022/06/01 04:45:05;;;;;;;10.88;9.90;;;;;;;10.02;94.11;101381.97;5092623;28;20036;-35
2022/06/01 04:47:31;;;;;;;12.85;10.77;;;;;;;10.11;93.72;101389.84;5092550;28;20028;-35
2022/06/01 04:49:56;;;;;;;12.17;11.07;;;;;;;10.11;93.92;101400.66;5092510;28;20318;-35
2022/06/01 04:52:22;;;;;;;11.95;10.50;;;;;;;10.21;93.68;101395.63;5093333;28;20445;-35
2022/06/01 04:54:47;;;;;;;11.50;9.83;;;;;;;10.23;93.52;101388.94;5092648;28;20392;-35
2022/06/01 04:57:12;;;;;;;11.80;10.57;;;;;;;10.34;93.59;101383.91;5092789;28;20031;-35
2022/06/01 04:59:38;;;;;;;11.13;10.00;;;;;;;10.29;92.68;101387.28;5092146;28;20109;-35
2022/06/01 05:02:04;;;;;;;12.17;10.53;;;;;;;10.39;92.95;101395.75;5092852;28;20039;-35
2022/06/01 05:04:30;;;;;;;11.57;10.38;;;;;;;10.36;92.65;101398.06;5092550;28;20315;-35
2022/06/01 05:06:56;;;;;;;12.77;10.57;;;;;;;10.24;92.88;101378.97;5092206;28;20193;-35
2022/06/01 05:09:21;;;;;;;;;;;;;;;10.54;92.72;101396.31;5092950;28;20422;-35
2022/06/01 05:11:46;;;;;;;12.83;11.50;;;;;;;10.47;93.35;101395.50;5092558;28;19912;-35
2022/06/01 05:14:12;;;;;;;11.17;10.07;;;;;;;10.51;93.23;101391.31;5092410;28;20704;-35
2022/06/01 05:16:37;;;;;;;14.87;10.47;;;;;;;10.56;93.20;101394.19;5092247;28;20524;-35
2022/06/01 05:19:03;;;;;;;11.00;9.63;;;;;;;10.60;92.86;101393.78;5092061;28;20087;-35
2022/06/01 05:21:28;;;;;;;11.65;10.55;;;;;;;10.63;93.58;101401.44;5092819;28;20028;-35
2022/06/01 05:23:54;;;;;;;10.93;9.93;;;;;;;10.61;92.71;101390.84;5093083;28;20032;-35
2022/06/01 05:26:19;;;;;;;10.93;9.93;;;;;;;10.60;92.42;101385.66;5096163;28;20031;-35
2022/06/01 05:28:44;;;;;;;10.93;9.83;;;;;;;10.76;93.02;101394.06;5095643;28;20024;-35
2022/06/01 05:31:11;;;;;;;10.90;9.80;;;;;;;10.89;93.05;101398.56;5095849;28;20361;-35
2022/06/01 05:33:39;;;;;;;12.00;9.95;;;;;;;10.86;92.81;101395.47;5095450;28;20107;-35
2022/06/01 05:36:05;;;;;;;11.40;9.82;;;;;;;10.99;92.96;101393.50;5096361;28;20165;-35
2022/06/01 05:38:31;;;;;;;;;;;;;;;11.19;92.51;101397.91;5096562;28;20128;-35
2022/06/01 05:40:56;;;;;;;10.10;8.50;;;;;;;11.22;91.74;101394.75;5095447;28;20336;-35
2022/06/01 05:43:22;;;;;;;12.17;8.77;;;;;;;11.30;91.68;101398.00;5095544;28;20024;-35
2022/06/01 05:45:48;;;;;;;10.93;9.80;;;;;;;11.35;91.02;101397.34;5095766;28;20039;-35
2022/06/01 05:48:15;;;;;;;11.77;9.18;;;;;;;11.43;90.94;101407.91;5095413;28;20028;-35
2022/06/01 05:50:42;;;;;;;10.45;9.30;;;;;;;11.51;90.72;101401.34;5095805;28;20414;-35
2022/06/01 05:53:08;;;;;;;11.60;8.98;;;;;;;11.51;90.86;101402.16;5095355;28;20039;-35
2022/06/01 05:55:35;;;;;;;9.80;8.85;;;;;;;11.52;90.37;101390.31;5095347;28;20035;-35
2022/06/01 05:58:00;;;;;;;9.80;8.80;;;;;;;11.63;89.86;101413.13;5095120;28;20109;-35
2022/06/01 06:00:26;;;;;;;8.60;7.50;;;;;;;11.70;89.81;101413.03;5094900;28;20071;-35
2022/06/01 06:02:51;;;;;;;11.30;8.93;;;;;;;11.73;90.08;101415.31;5095833;28;20028;-35
2022/06/01 06:08:02;;;;;;;10.07;8.23;;;;;;;11.78;89.58;101413.56;5095050;28;20115;-35
2022/06/01 06:10:28;;;;;;;12.57;8.43;;;;;;;11.80;89.76;101416.03;5094845;28;20037;-35
2022/06/01 06:12:53;;;;;;;9.50;8.00;;;;;;;11.75;89.23;101388.81;5095747;28;20024;-36
2022/06/01 06:15:19;;;;;;;10.15;8.38;;;;;;;11.97;nan;101411.72;5094944;28;20044;-35
2022/06/01 06:17:45;;;;;;;10.30;8.65;;;;;;;12.02;90.62;101411.88;5095272;28;20114;-35
2022/06/01 06:20:14;;;;;;;9.55;8.55;;;;;;;12.08;90.32;101419.09;5094990;28;20174;-36
2022/06/01 06:22:40;;;;;;;8.50;7.70;;;;;;;12.09;89.93;101409.91;5095222;28;20381;-35
2022/06/01 06:25:05;;;;;;;10.27;7.63;;;;;;;12.22;89.60;101429.78;5094857;28;20103;-35
2022/06/01 06:27:31;;;;;;;10.60;8.02;;;;;;;12.27;89.21;101428.03;5094339;28;20040;-35
2022/06/01 06:29:56;;;;;;;9.40;7.30;;;;;;;12.33;89.38;101431.72;5094330;28;20059;-35
2022/06/01 06:32:22;;;;;;;9.23;7.80;;;;;;;12.42;89.38;101435.78;5094689;28;20340;-35
2022/06/01 06:34:48;;;;;;;9.20;7.65;;;;;;;12.43;89.12;101426.59;5093226;28;20040;-35
2022/06/01 06:37:13;;;;;;;8.32;6.97;;;;;;;12.52;88.72;101429.81;5094137;28;20461;-35
2022/06/01 06:39:38;;;;;;;9.87;7.27;;;;;;;12.62;89.33;101443.66;5094345;28;20103;-35
2022/06/01 06:42:04;;;;;;;10.43;7.18;;;;;;;12.62;88.94;101435.50;5094669;28;20027;-35
2022/06/01 06:44:29;;;;;;;6.93;6.32;;;;;;;12.72;88.42;101430.34;5094104;28;20031;-35
2022/06/01 06:46:55;;;;;;;11.55;6.97;;;;;;;12.74;88.54;101441.00;5094917;28;20037;-35
2022/06/01 06:49:21;;;;;;;7.60;6.03;;;;;;;12.81;88.29;101441.72;5094385;28;20036;-35
2022/06/01 06:51:46;;;;;;;8.65;6.50;;;;;;;12.73;88.00;101437.44;5094972;28;20036;-35
2022/06/01 06:54:11;;;;;;;6.33;5.73;;;;;;;12.83;87.48;101442.31;5094308;28;20031;-35
2022/06/01 06:56:37;;;;;;;9.47;5.97;;;;;;;12.94;87.24;101444.25;5095180;28;20027;-35
2022/06/01 06:59:04;;;;;;;10.43;6.20;;;;;;;12.97;87.01;101454.63;5094131;28;20271;-35
2022/06/01 07:01:29;;;;;;;6.70;5.75;;;;;;;13.01;86.43;101444.13;5094242;28;20028;-35
2022/06/01 07:03:54;;;;;;;7.07;5.40;;;;;;;13.18;86.49;101455.16;5094008;28;20070;-35
2022/06/01 07:06:20;;;;;;;7.30;5.70;;;;;;;13.22;85.80;101461.78;5094523;28;20594;-35
2022/06/01 07:08:48;;;;;;;6.35;5.22;;;;;;;13.29;85.93;101446.22;5093862;28;20447;-35
2022/06/01 07:11:16;;;;;;;8.70;5.28;;;;;;;13.33;85.03;101450.97;5094166;28;20028;-35
2022/06/01 07:13:42;;;;;;;6.70;4.68;;;;;;;13.42;84.43;101462.31;5093677;28;20453;-35
2022/06/01 07:16:09;;;;;;;6.00;4.55;;;;;;;13.42;82.95;101443.28;5094011;28;20078;-35
2022/06/01 07:18:38;;;;;;;6.43;4.50;;;;;;;13.51;83.62;101447.28;5093541;28;20090;-35
2022/06/01 07:21:04;;;;;;;5.80;5.20;;;;;;;13.57;83.65;101443.66;5094021;28;20020;-35
2022/06/01 07:23:29;;;;;;;5.65;4.63;;;;;;;13.71;83.23;101460.53;5093726;28;20448;-35
2022/06/01 07:25:54;;;;;;;6.40;5.10;;;;;;;13.69;83.75;101456.41;5094609;28;20078;-35
2022/06/01 07:28:22;;;;;;;6.30;4.60;;;;;;;13.82;82.27;101456.16;5093591;28;20020;-35
2022/06/01 07:30:50;;;;;;;5.03;4.43;;;;;;;13.82;82.42;101443.41;5094671;28;20099;-35
2022/06/01 07:33:17;;;;;;;4.93;4.05;;;;;;;13.95;80.46;101458.63;5093634;28;20036;-35
2022/06/01 07:35:42;;;;;;;5.88;4.35;;;;;;;14.02;81.36;101462.06;5093601;28;20094;-35
2022/06/01 07:43:39;;;;;;;4.38;3.75;;;;;;;14.18;80.01;101455.03;5093753;28;20035;-36
2022/06/01 07:46:04;;;;;;;7.82;4.53;;;;;;;14.37;80.45;101458.44;5093744;28;20418;-35
2022/06/01 07:48:29;;;;;;;;;;;;;;;14.50;80.96;101450.03;5093227;28;20046;-35
2022/06/01 07:50:55;;;;;;;6.27;3.97;;;;;;;14.42;78.44;101453.91;5093435;28;19915;-35
2022/06/01 07:53:20;;;;;;;;;;;;;;;14.63;79.43;101455.16;5094276;28;20024;-35
2022/06/01 07:55:45;;;;;;;5.10;3.90;;;;;;;14.54;77.80;101455.78;5093862;28;19912;-35
2022/06/01 07:58:10;;;;;;;5.50;4.27;;;;;;;14.45;78.12;101460.78;5091575;28;20038;-35
2022/06/01 08:00:36;;;;;;;;;;;;;;;14.52;79.45;101461.47;5094053;28;20028;-35
2022/06/01 08:03:02;;;;;;;7.22;4.10;;;;;;;14.56;78.26;101457.22;5092964;28;19994;-35
2022/06/01 08:05:27;;;;;;;;;;;;;;;14.74;79.70;101461.66;5093942;28;20410;-35
2022/06/01 08:07:53;;;;;;;4.88;4.32;;;;;;;14.57;77.13;101460.75;5093345;28;19914;-35
2022/06/01 08:10:20;;;;;;;4.72;3.90;;;;;;;14.53;77.95;101456.84;5093115;28;20127;-36
2022/06/01 08:15:30;;;;;;;4.47;4.03;;;;;;;14.60;77.48;101455.66;5093582;28;20054;-36
2022/06/01 08:17:57;;;;;;;7.18;4.07;;;;;;;14.58;76.23;101462.41;5093605;28;20040;-36
2022/06/01 08:20:23;;;;;;;6.55;3.75;;;;;;;14.57;77.36;101461.56;5092991;28;20078;-35
2022/06/01 08:22:49;;;;;;;5.93;4.35;;;;;;;14.57;76.84;101458.03;5093057;28;20111;-35
2022/06/01 08:25:16;;;;;;;8.63;4.57;;;;;;;14.59;77.40;101464.91;5093824;28;20060;-35
2022/06/01 08:27:42;;;;;;;6.93;4.05;;;;;;;14.45;76.71;101462.66;5093468;28;20496;-36
2022/06/01 08:30:08;;;;;;;5.63;4.10;;;;;;;14.54;77.17;101462.06;5093194;28;20050;-35
2022/06/01 08:32:33;;;;;;;;;;;;;;;14.84;78.21;101453.66;5093419;28;20062;-35
2022/06/01 08:35:03;;;;;;;4.57;3.60;;;;;;;14.94;74.51;101453.03;5092951;28;20027;-36
2022/06/01 08:37:28;;;;;;;5.70;4.07;;;;;;;14.84;71.44;101440.03;5093487;28;20020;-36
2022/06/01 08:39:54;;;;;;;5.27;4.13;;;;;;;14.89;73.86;101450.22;5092951;28;20028;-36
2022/06/01 08:42:20;;;;;;;;;;;;;;;14.95;75.65;101451.94;5093315;28;20024;-36
2022/06/01 08:44:49;;;;;;;5.72;3.75;;;;;;;14.68;72.02;101449.81;5092786;28;19914;-36
2022/06/01 08:47:34;;;;;;;5.63;3.75;;;;;;;14.68;73.83;101447.09;5093148;28;20039;-35
2022/06/01 08:50:04;;;;;;;6.40;3.90;;;;;;;14.69;72.55;101450.66;5093151;28;20024;-35
2022/06/01 08:52:30;;;;;;;5.68;3.30;;;;;;;14.71;70.54;101453.94;5093468;28;20357;-35
2022/06/01 08:54:55;;;;;;;4.85;3.60;;;;;;;14.78;70.30;101453.78;5092756;28;20036;-35
2022/06/01 08:57:26;;;;;;;4.00;2.72;;;;;;;14.88;69.27;101460.28;5093009;28;20035;-35
2022/06/01 09:00:11;;;;;;;4.40;2.75;;;;;;;15.05;70.82;101457.56;5095323;28;20024;-35
2022/06/01 09:02:48;;;;;;;4.95;2.88;;;;;;;15.15;69.09;101460.47;5096585;28;20036;-35
2022/06/01 09:05:21;;;;;;;4.35;3.20;;;;;;;15.09;69.04;101455.19;5096581;28;20035;-35
2022/06/01 09:07:53;;;;;;;4.75;3.45;;;;;;;14.96;69.27;101458.22;5096886;28;20036;-35
2022/06/01 09:10:47;;;;;;;4.70;3.47;;;;;;;14.83;69.21;101464.78;5096453;28;20106;-36
2022/06/01 09:13:23;;;;;;;5.72;3.60;;;;;;;14.71;70.44;101472.19;5096978;28;20021;-35
2022/06/01 09:15:58;;;;;;;5.07;3.70;;;;;;;14.51;70.36;101451.66;5096474;28;20176;-35
2022/06/01 09:18:28;;;;;;;6.05;3.85;;;;;;;14.45;72.19;101468.94;5096442;28;20039;-35
2022/06/01 09:23:38;;;;;;;6.03;4.43;;;;;;;14.07;76.76;101480.38;5096176;28;20089;-35
2022/06/01 09:26:06;;;;;;;4.20;3.05;;;;;;;13.86;76.91;101498.13;5096660;28;20448;-35
2022/06/01 09:28:39;;;;;;;3.58;2.70;;;;;;;13.43;77.65;101502.00;5096240;28;20028;-35
2022/06/01 09:31:23;;;;;;;2.42;1.90;;;;;;;13.30;78.95;101521.22;5096523;28;20028;-35
2022/06/01 09:33:49;;;;;;;2.70;1.80;;;;;;;13.06;79.10;101507.53;5095875;28;20024;-35
2022/06/01 09:36:19;;;;;;;;;;;;;;;13.07;78.86;101503.75;5096726;28;20069;-35
2022/06/01 09:38:54;;;;;;;1.63;1.35;;;;;;;12.75;81.00;101496.91;5096343;28;19912;-35
2022/06/01 09:41:19;;;;;;;2.03;1.30;;;;;;;12.85;82.87;101510.75;5096067;28;20031;-35
2022/06/01 09:43:52;;;;;;;1.70;1.00;;;;;;;12.79;82.92;101489.97;5096456;28;20453;-35
2022/06/01 09:46:33;;;;;;;1.35;1.00;;;;;;;12.93;82.77;101506.88;5096503;28;20154;-35
2022/06/01 09:49:24;;;;;;;1.92;1.23;;;;;;;13.19;84.11;101511.13;5095659;28;20035;-35
2022/06/01 09:51:55;;;;;;;1.92;1.10;;;;;;;13.33;81.51;101499.84;5053093;28;20045;-36
2022/06/01 09:54:20;;;;;;;1.75;1.23;;;;;;;13.46;83.07;101501.50;5037136;28;20393;-35
2022/06/01 09:56:48;;;;;;;1.30;1.20;;;;;;;13.42;83.34;101504.94;5053206;28;20040;-35
2022/06/01 10:08:29;;;;;;;1.35;1.00;;;;;;;13.36;82.64;101512.94;5052938;28;20043;-35
2022/06/01 10:10:59;;;;;;;4.35;1.60;;;;;;;13.30;82.56;101523.94;5052295;28;20445;-35
2022/06/01 10:13:47;;;;;;;3.58;0.93;;;;;;;13.16;81.84;101528.69;5052719;28;20029;-35
2022/06/01 10:16:24;;;;;;;2.38;0.93;;;;;;;13.05;82.24;101524.06;5052585;28;20457;-35
2022/06/01 10:18:52;;;;;;;1.75;0.90;;;;;;;13.02;83.96;101541.63;5052957;28;20037;-35
2022/06/01 10:21:24;;;;;;;1.73;1.02;;;;;;;12.94;83.33;101524.84;5052499;28;20036;-35
2022/06/01 10:24:07;;;;;;;2.88;1.50;;;;;;;12.99;82.22;101544.81;5053063;28;20472;-35
2022/06/01 10:26:37;;;;;;;2.45;1.30;;;;;;;13.01;83.74;101542.69;5052797;28;20037;-35
2022/06/01 10:29:14;;;;;;;1.70;1.40;;;;;;;13.05;84.07;101554.75;5077579;28;20059;-35
2022/06/01 10:31:45;;;;;;;1.90;1.52;;;;;;;13.05;85.43;101551.22;5094975;28;20028;-35
2022/06/01 10:34:25;;;;;;;2.67;1.73;;;;;;;13.06;85.25;101553.69;5094515;28;20475;-36
2022/06/01 10:36:57;;;;;;;3.05;1.80;;;;;;;12.94;85.10;101562.84;5092840;28;20047;-35
2022/06/01 10:39:35;;;;;;;4.57;2.70;;;;;;;12.90;84.92;101562.47;5095060;28;20386;-35
2022/06/01 10:42:09;;;;;;;3.90;2.35;;;;;;;12.88;87.46;101537.44;5094464;28;20020;-35
2022/06/01 10:44:48;;;;;;;3.63;2.88;;;;;;;13.03;86.62;101556.03;5094332;28;20075;-34
2022/06/01 10:47:25;;;;;;;2.50;2.30;;;;;;;13.21;86.93;101558.69;5094732;28;20028;-34
2022/06/01 10:49:58;;;;;;;3.85;3.10;;;;;;;13.43;86.82;101552.78;5094657;28;20381;-35
2022/06/01 10:52:37;;;;;;;4.30;2.83;;;;;;;13.60;85.81;101556.47;5094416;28;20028;-35
2022/06/01 10:55:12;;;;;;;2.88;2.65;;;;;;;13.60;84.96;101535.56;5093985;28;20027;-34
2022/06/01 10:57:40;;;;;;;3.28;2.72;;;;;;;13.63;84.46;101542.44;5094618;28;20058;-34
2022/06/01 11:00:10;;;;;;;4.18;2.90;;;;;;;13.80;81.86;101529.78;5094213;28;20028;-34
2022/06/01 11:02:57;;;;;;;3.10;2.42;;;;;;;13.99;81.10;101532.38;5094576;28;20487;-34
2022/06/01 11:05:32;;;;;;;;;;;;;;;14.20;81.38;101528.22;5094564;28;20023;-34
2022/06/01 11:08:05;;;;;;;2.88;2.20;;;;;;;14.27;79.66;101539.81;5094086;28;20002;-34
2022/06/01 11:10:40;;;;;;;2.92;2.10;;;;;;;14.34;78.31;101535.91;5093957;28;20510;-34
2022/06/01 11:13:45;;;;;;;8.00;2.78;;;;;;;14.61;80.21;101538.97;5094303;28;20379;-34
2022/06/01 11:16:10;;;;;;;4.50;2.67;;;;;;;14.72;78.63;101540.00;5093785;28;20040;-34
2022/06/01 11:18:44;;;;;;;;;;;;;;;14.98;79.46;101538.56;5094976;28;20039;-34
2022/06/01 11:21:34;;;;;;;4.90;3.00;;;;;;;15.08;79.30;101540.66;5093968;28;19912;-34
2022/06/01 11:24:11;;;;;;;4.93;2.95;;;;;;;15.15;80.17;101547.63;5094081;28;20036;-34
2022/06/01 11:26:42;;;;;;;;;;;;;;;15.43;79.19;101538.59;5094813;28;20040;-34
2022/06/01 11:29:26;;;;;;;4.18;2.95;;;;;;;15.66;76.82;101534.09;5093503;28;20415;-35
2022/06/01 11:31:56;;;;;;;4.35;2.78;;;;;;;15.95;76.52;101527.44;5093968;28;20119;-35
2022/06/01 11:34:32;;;;;;;5.40;3.13;;;;;;;16.37;75.04;101526.94;5093362;28;20472;-35
2022/06/01 11:37:01;;;;;;;;;;;;;;;16.59;74.18;101532.44;5094342;28;20380;-34
2022/06/01 11:39:43;;;;;;;4.50;2.53;;;;;;;16.41;72.82;101528.09;5126061;27;19912;-35
2022/06/01 11:42:34;;;;;;;3.13;2.60;;;;;;;16.64;73.29;101526.19;5094051;28;20035;-35
2022/06/01 11:45:38;;;;;;;4.40;2.30;;;;;;;16.81;73.53;101520.69;5093262;28;20112;-35
2022/06/01 11:48:07;;;;;;;3.92;2.45;;;;;;;16.86;69.04;101529.75;5031346;28;20181;-35
2022/06/01 11:50:33;;;;;;;2.85;2.30;;;;;;;17.15;68.52;101527.59;5030760;28;20041;-34
2022/06/01 11:53:01;;;;;;;2.95;1.83;;;;;;;17.40;68.38;101521.53;5031439;28;20466;-35
2022/06/01 11:55:38;;;;;;;2.78;1.90;;;;;;;17.37;65.40;101510.31;5030782;28;20038;-35
2022/06/01 11:58:08;;;;;;;2.67;1.63;;;;;;;17.80;65.44;101513.97;5031448;28;20141;-35
2022/06/01 12:00:36;;;;;;;2.47;1.65;;;;;;;18.19;63.58;101515.28;5031149;28;20045;-35
2022/06/01 12:03:24;;;;;;;4.50;1.33;;;;;;;18.35;64.01;101513.47;5031398;28;20434;-35